Time;durP1;ratioP1;P1;durP2;ratioP2;P2;SDS_P1;SDS_P2;PMS_P1;PMS_P2;Temp;Humidity;BMP_temperature;BMP_pressure;BME280_temperature;BME280_humidity;BME280_pressure;Samples;Min_cycle;Max_cycle;Signal;HPM_P1;HPM_P2
2021/10/28 00:13:53;;;;;;;9.40;5.50;;;;;;;10.66;58.52;99312.31;3389174;29;20047;-68
2021/10/28 00:15:37;;;;;;;7.43;5.10;;;;;;;10.67;58.69;99313.13;3389317;29;20385;-68
2021/10/28 00:17:23;;;;;;;8.82;5.40;;;;;;;10.64;58.61;99300.22;3389487;29;20040;-67
2021/10/28 00:19:04;;;;;;;10.00;5.80;;;;;;;10.63;58.73;99298.56;3387920;29;20092;-68
2021/10/28 00:20:45;;;;;;;8.17;5.77;;;;;;;10.63;58.73;99301.22;3388790;29;20589;-68
2021/10/28 00:22:26;;;;;;;13.57;5.35;;;;;;;10.64;58.86;99297.56;3389549;29;20095;-67
2021/10/28 00:24:10;;;;;;;6.97;5.10;;;;;;;10.63;58.85;99287.91;3389783;29;20043;-67
2021/10/28 00:25:51;;;;;;;13.07;5.97;;;;;;;10.64;58.75;99292.22;3387988;29;20047;-68
2021/10/28 00:27:31;;;;;;;8.98;4.93;;;;;;;10.63;58.95;99291.38;3389480;29;20048;-67
2021/10/28 00:29:16;;;;;;;9.10;5.00;;;;;;;10.64;58.95;99281.56;3387778;29;20040;-67
2021/10/28 00:30:57;;;;;;;9.98;5.75;;;;;;;10.62;59.10;99283.63;3389549;29;20102;-67
2021/10/28 00:32:38;;;;;;;7.40;4.72;;;;;;;10.58;59.00;99269.03;3389667;29;20516;-68
2021/10/28 00:34:19;;;;;;;9.27;5.28;;;;;;;10.61;59.04;99263.31;3388922;29;20036;-67
2021/10/28 00:36:01;;;;;;;8.10;4.95;;;;;;;10.58;59.25;99263.72;3388109;29;20424;-68
2021/10/28 00:37:43;;;;;;;9.10;5.25;;;;;;;10.61;59.27;99271.28;3376464;29;20493;-68
2021/10/28 00:39:24;;;;;;;8.82;4.85;;;;;;;10.62;58.98;99254.31;3381493;29;20399;-68
2021/10/28 00:41:06;;;;;;;8.85;5.10;;;;;;;10.62;59.20;99267.63;3389335;29;20079;-67
2021/10/28 00:42:46;;;;;;;7.18;5.75;;;;;;;10.60;59.38;99257.16;3389279;29;20068;-67
2021/10/28 00:44:27;;;;;;;10.05;5.60;;;;;;;10.62;59.28;99256.97;3387610;29;20099;-67
2021/10/28 00:46:09;;;;;;;7.28;4.72;;;;;;;10.62;59.17;99248.97;3383721;29;20044;-67
2021/10/28 00:47:49;;;;;;;10.63;5.85;;;;;;;10.63;59.08;99247.94;3389769;29;20135;-68
2021/10/28 00:49:30;;;;;;;8.30;5.47;;;;;;;10.60;59.13;99243.84;3385673;29;20037;-67
2021/10/28 00:51:12;;;;;;;11.43;5.20;;;;;;;10.61;59.29;99239.31;3386618;29;20511;-67
2021/10/28 00:52:52;;;;;;;10.13;5.68;;;;;;;10.60;59.31;99237.69;3389471;29;20051;-67
2021/10/28 00:54:33;;;;;;;11.70;5.30;;;;;;;10.61;59.28;99240.16;3387207;29;20062;-68
2021/10/28 00:56:14;;;;;;;9.35;5.53;;;;;;;10.62;59.18;99225.81;3385455;29;20068;-68
2021/10/28 00:57:55;;;;;;;9.38;5.13;;;;;;;10.63;59.18;99229.28;3389115;29;20044;-68
2021/10/28 00:59:38;;;;;;;8.57;5.70;;;;;;;10.65;59.17;99224.56;3386502;29;20119;-68
2021/10/28 01:01:18;;;;;;;9.15;5.22;;;;;;;10.65;59.36;99219.25;3388752;29;20048;-67
2021/10/28 01:02:59;;;;;;;7.85;5.15;;;;;;;10.66;59.32;99218.19;3389322;29;20127;-68
2021/10/28 01:04:41;;;;;;;10.77;6.47;;;;;;;10.64;59.20;99221.09;3389177;29;20488;-67
2021/10/28 01:06:22;;;;;;;;;;;;;;;10.75;58.81;99214.31;3389583;29;20579;-67
2021/10/28 01:08:03;;;;;;;8.63;5.50;;;;;;;10.70;58.96;99212.25;3387853;29;20013;-67
2021/10/28 01:09:44;;;;;;;8.13;5.40;;;;;;;10.70;59.08;99206.94;3377453;29;20184;-69
2021/10/28 01:11:26;;;;;;;9.80;5.72;;;;;;;10.69;59.34;99201.81;3376248;29;20345;-68
2021/10/28 01:13:07;;;;;;;7.13;4.85;;;;;;;10.68;59.28;99197.50;3376270;29;20131;-67
2021/10/28 01:14:47;;;;;;;8.07;4.43;;;;;;;10.67;59.31;99195.88;3375860;29;20052;-68
2021/10/28 01:16:28;;;;;;;9.07;6.70;;;;;;;10.68;59.41;99190.31;3376059;29;20044;-67
2021/10/28 01:18:10;;;;;;;11.93;6.32;;;;;;;10.69;59.47;99177.84;3376095;29;20040;-68
2021/10/28 01:19:52;;;;;;;;;;;;;;;10.78;59.01;99181.91;3380264;29;20044;-67
2021/10/28 01:21:33;;;;;;;7.68;5.00;;;;;;;10.69;59.08;99161.84;3389313;29;20355;-67
2021/10/28 01:23:14;;;;;;;7.38;4.93;;;;;;;10.70;59.24;99174.13;3388909;29;20098;-68
2021/10/28 01:24:54;;;;;;;8.40;5.28;;;;;;;10.72;59.36;99169.41;3389015;29;20071;-67
2021/10/28 01:26:35;;;;;;;9.35;5.53;;;;;;;10.70;59.32;99168.81;3388754;29;20140;-68
2021/10/28 01:28:16;;;;;;;9.50;5.93;;;;;;;10.70;59.55;99163.47;3388404;29;21749;-67
2021/10/28 01:29:57;;;;;;;11.75;6.13;;;;;;;10.68;59.41;99161.00;3387638;29;20142;-67
2021/10/28 01:31:37;;;;;;;7.10;5.45;;;;;;;10.69;59.48;99167.19;3376931;29;20547;-67
2021/10/28 01:33:19;;;;;;;9.50;6.20;;;;;;;10.67;59.52;99164.69;3375577;29;20040;-68
2021/10/28 01:35:00;;;;;;;9.85;6.25;;;;;;;10.66;59.71;99159.56;3375964;29;20051;-68
2021/10/28 01:36:41;;;;;;;11.30;5.45;;;;;;;10.66;59.68;99163.06;3375638;29;20055;-67
2021/10/28 01:38:24;;;;;;;9.80;6.63;;;;;;;10.64;59.82;99151.81;3375775;29;20107;-67
2021/10/28 01:40:06;;;;;;;8.25;5.30;;;;;;;10.64;59.73;99146.47;3374852;29;20084;-69
2021/10/28 01:41:46;;;;;;;8.82;5.65;;;;;;;10.65;59.62;99142.75;3381640;29;20130;-69
2021/10/28 01:43:30;;;;;;;9.43;6.15;;;;;;;10.66;59.90;99151.56;3388356;29;20579;-69
2021/10/28 01:45:11;;;;;;;9.50;5.75;;;;;;;10.67;59.76;99155.91;3387051;29;20158;-68
2021/10/28 01:46:52;;;;;;;9.98;6.40;;;;;;;10.66;59.67;99148.91;3388361;29;20137;-68
2021/10/28 01:48:32;;;;;;;12.07;6.43;;;;;;;10.65;59.91;99141.94;3388879;29;20071;-67
2021/10/28 01:50:13;;;;;;;6.40;5.15;;;;;;;10.65;59.91;99139.28;3386836;29;20046;-67
2021/10/28 01:51:54;;;;;;;9.15;5.72;;;;;;;10.65;59.82;99128.63;3383019;29;20052;-67
2021/10/28 01:53:40;;;;;;;11.30;5.93;;;;;;;10.66;60.14;99125.78;3375839;29;20119;-67
2021/10/28 01:55:20;;;;;;;7.95;5.80;;;;;;;10.64;60.02;99124.34;3375759;29;20040;-68
2021/10/28 01:57:01;;;;;;;8.13;5.90;;;;;;;10.65;59.97;99126.78;3375606;29;20136;-68
2021/10/28 01:58:42;;;;;;;9.85;6.15;;;;;;;10.63;60.04;99120.84;3378851;29;20491;-67
2021/10/28 02:00:23;;;;;;;9.02;5.82;;;;;;;10.65;60.08;99123.31;3388176;29;20122;-68
2021/10/28 02:02:04;;;;;;;9.63;5.95;;;;;;;10.63;60.15;99120.84;3387618;29;20087;-67
2021/10/28 02:03:45;;;;;;;9.32;6.03;;;;;;;10.65;60.03;99115.31;3388459;29;20475;-68
2021/10/28 02:05:26;;;;;;;13.63;6.55;;;;;;;10.64;60.13;99108.34;3388121;29;20044;-67
2021/10/28 02:07:07;;;;;;;10.48;6.50;;;;;;;10.65;59.94;99109.97;3388630;29;20035;-67
2021/10/28 02:08:48;;;;;;;9.63;6.03;;;;;;;10.64;60.07;99100.34;3387918;29;20103;-67
2021/10/28 02:10:29;;;;;;;10.43;5.60;;;;;;;10.62;60.28;99108.53;3388362;29;20567;-67
2021/10/28 02:12:09;;;;;;;10.00;6.47;;;;;;;10.61;60.43;99095.41;3386566;29;20047;-68
2021/10/28 02:13:50;;;;;;;17.40;7.07;;;;;;;10.62;60.48;99102.41;3388670;29;20107;-67
2021/10/28 02:15:33;;;;;;;10.00;6.53;;;;;;;10.61;60.43;99088.28;3388580;29;20429;-67
2021/10/28 02:17:15;;;;;;;9.95;6.53;;;;;;;10.60;60.38;99083.94;3388321;29;20043;-67
2021/10/28 02:18:56;;;;;;;10.32;6.13;;;;;;;10.60;60.70;99085.81;3388379;29;20054;-67
2021/10/28 02:20:38;;;;;;;10.57;6.57;;;;;;;10.60;60.70;99088.47;3388523;29;20139;-67
2021/10/28 02:22:19;;;;;;;11.00;6.72;;;;;;;10.59;60.82;99076.19;3385849;29;20040;-67
2021/10/28 02:23:59;;;;;;;9.98;6.25;;;;;;;10.60;60.59;99083.13;3387416;29;20051;-68
2021/10/28 02:25:40;;;;;;;10.55;6.32;;;;;;;10.60;60.75;99070.63;3388125;29;20048;-70
2021/10/28 02:27:21;;;;;;;10.48;6.93;;;;;;;10.61;60.49;99064.28;3388208;29;20059;-66
2021/10/28 02:29:03;;;;;;;9.70;6.28;;;;;;;10.61;60.66;99063.44;3388492;29;20050;-68
2021/10/28 02:30:43;;;;;;;15.40;7.90;;;;;;;10.61;60.61;99064.28;3387469;29;20052;-67
2021/10/28 02:32:24;;;;;;;12.43;5.78;;;;;;;10.58;60.81;99055.88;3385792;29;20038;-68
2021/10/28 02:34:05;;;;;;;9.90;6.53;;;;;;;10.60;60.75;99057.31;3388166;29;20040;-67
2021/10/28 02:35:45;;;;;;;9.07;5.88;;;;;;;10.60;60.78;99045.81;3388119;29;20660;-67
2021/10/28 02:37:27;;;;;;;8.65;6.28;;;;;;;10.60;60.64;99051.16;3385740;29;20044;-68
2021/10/28 02:39:08;;;;;;;11.73;7.00;;;;;;;10.60;60.61;99051.16;3375401;29;20520;-67
2021/10/28 02:40:49;;;;;;;10.73;6.90;;;;;;;10.59;60.69;99046.88;3374834;29;20527;-67
2021/10/28 02:42:31;;;;;;;10.60;6.90;;;;;;;10.58;60.69;99048.69;3376236;29;20045;-68
2021/10/28 02:44:13;;;;;;;9.52;6.13;;;;;;;10.59;60.84;99036.22;3382760;29;20036;-68
2021/10/28 02:45:54;;;;;;;11.75;7.10;;;;;;;10.60;60.85;99038.66;3378954;29;20049;-67
2021/10/28 02:47:35;;;;;;;9.60;6.40;;;;;;;10.58;60.89;99021.22;3375180;29;20052;-68
2021/10/28 02:49:16;;;;;;;16.48;7.32;;;;;;;10.56;60.85;99018.81;3375267;29;20044;-70
2021/10/28 02:50:57;;;;;;;11.90;6.05;;;;;;;10.57;60.90;99019.59;3375461;29;20132;-68
2021/10/28 02:52:38;;;;;;;11.50;7.35;;;;;;;10.55;61.07;99019.81;3378238;29;20531;-68
2021/10/28 02:54:20;;;;;;;9.68;6.53;;;;;;;10.53;61.16;99021.84;3386272;29;20183;-67
2021/10/28 02:56:01;;;;;;;11.68;7.22;;;;;;;10.52;61.02;99012.25;3388531;29;21051;-67
2021/10/28 02:57:42;;;;;;;10.18;7.10;;;;;;;10.52;61.13;99022.09;3388035;29;20051;-67
2021/10/28 02:59:23;;;;;;;9.27;6.43;;;;;;;10.46;61.30;99010.44;3388119;29;20044;-67
2021/10/28 03:01:04;;;;;;;13.60;7.32;;;;;;;10.51;61.07;99017.78;3386371;29;20543;-66
2021/10/28 03:02:44;;;;;;;13.23;7.45;;;;;;;10.51;61.22;99020.44;3385396;29;20032;-67
2021/10/28 03:04:25;;;;;;;13.30;7.93;;;;;;;10.50;61.07;99014.28;3388055;29;20091;-68
2021/10/28 03:06:06;;;;;;;11.52;7.35;;;;;;;10.48;61.19;99005.72;3375502;29;20068;-67
2021/10/28 03:07:47;;;;;;;13.80;8.05;;;;;;;10.46;61.25;98992.59;3374898;29;20393;-68
2021/10/28 03:09:29;;;;;;;11.57;7.95;;;;;;;10.45;61.63;99001.63;3375415;29;20055;-67
2021/10/28 03:11:09;;;;;;;;;;;;;;;10.54;60.92;98996.88;3375415;29;20162;-67
2021/10/28 03:12:52;;;;;;;10.57;6.90;;;;;;;10.47;61.33;98998.72;3375384;29;19931;-68
2021/10/28 03:26:24;;;;;;;11.13;7.75;;;;;;;10.42;62.06;98991.38;3390229;29;20087;-68
2021/10/28 03:28:12;;;;;;;14.80;7.88;;;;;;;10.39;62.41;98989.13;3390379;29;20059;-66
2021/10/28 03:29:53;;;;;;;12.57;7.35;;;;;;;10.37;62.17;98985.03;3389313;29;20106;-67
2021/10/28 03:31:33;;;;;;;10.73;7.30;;;;;;;10.36;62.20;98986.91;3377364;29;20460;-67
2021/10/28 03:33:16;;;;;;;14.98;7.18;;;;;;;10.34;62.45;98978.28;3378927;29;20512;-66
2021/10/28 03:34:57;;;;;;;11.55;7.85;;;;;;;10.34;62.56;98983.63;3377394;29;20092;-66
2021/10/28 03:36:48;;;;;;;10.25;7.25;;;;;;;10.36;62.70;98986.91;3377373;29;20041;-67
2021/10/28 03:38:34;;;;;;;9.95;6.50;;;;;;;10.36;62.62;98986.91;3377158;29;20070;-68
2021/10/28 03:45:22;;;;;;;11.18;6.78;;;;;;;10.38;62.29;98976.03;3386830;29;20179;-67
2021/10/28 04:00:31;;;;;;;7.38;5.88;;;;;;;10.35;62.94;98958.63;3375282;29;20390;-67
2021/10/28 04:08:15;;;;;;;10.10;6.85;;;;;;;10.36;62.95;98970.91;3389170;29;20051;-68
2021/10/28 04:19:43;;;;;;;9.43;6.70;;;;;;;10.32;63.92;98948.38;3389003;29;20508;-67
2021/10/28 04:29:13;;;;;;;8.05;5.93;;;;;;;10.33;63.93;98951.88;3388865;29;20048;-67
2021/10/28 04:30:54;;;;;;;12.40;6.30;;;;;;;10.34;63.99;98964.16;3386853;29;20048;-67
2021/10/28 04:32:35;;;;;;;13.65;6.20;;;;;;;10.33;63.93;98942.03;3387454;29;20103;-67
2021/10/28 04:34:16;;;;;;;10.73;5.78;;;;;;;10.33;64.10;98950.03;3387428;29;20416;-68
2021/10/28 04:35:57;;;;;;;8.65;5.63;;;;;;;10.34;64.16;98956.97;3389640;29;20047;-68
2021/10/28 04:37:38;;;;;;;9.70;5.60;;;;;;;10.33;64.17;98954.53;3389389;29;20454;-68
2021/10/28 04:39:19;;;;;;;7.82;5.63;;;;;;;10.32;64.42;98945.72;3384807;29;20040;-67
2021/10/28 04:40:59;;;;;;;8.50;6.43;;;;;;;10.32;64.37;98943.06;3376561;29;20145;-68
2021/10/28 04:42:40;;;;;;;8.95;5.20;;;;;;;10.33;64.35;98943.91;3382366;29;20520;-68
2021/10/28 04:44:21;;;;;;;9.75;5.93;;;;;;;10.34;64.42;98941.00;3385820;29;20043;-66
2021/10/28 04:46:03;;;;;;;6.82;4.68;;;;;;;10.36;64.29;98941.63;3380150;29;20052;-67
2021/10/28 04:47:44;;;;;;;7.35;5.75;;;;;;;10.37;64.45;98937.91;3385756;29;20063;-67
2021/10/28 04:49:24;;;;;;;7.53;5.70;;;;;;;10.38;64.44;98934.22;3389324;29;20052;-68
2021/10/28 04:51:05;;;;;;;7.95;5.75;;;;;;;10.41;64.32;98940.97;3389350;29;20044;-67
2021/10/28 04:52:46;;;;;;;8.35;5.60;;;;;;;10.43;64.33;98938.94;3388563;29;20179;-68
2021/10/28 04:54:26;;;;;;;8.73;5.40;;;;;;;10.43;64.50;98938.94;3386945;29;20044;-68
2021/10/28 04:56:07;;;;;;;6.70;4.93;;;;;;;10.42;64.51;98930.09;3388911;29;20076;-67
2021/10/28 04:57:48;;;;;;;7.20;5.07;;;;;;;10.45;64.32;98927.03;3389044;29;20416;-68
2021/10/28 04:59:28;;;;;;;7.47;5.07;;;;;;;10.46;64.43;98933.16;3388875;29;20500;-68
2021/10/28 05:01:09;;;;;;;6.57;5.03;;;;;;;10.44;64.39;98936.03;3389074;29;20047;-68
2021/10/28 05:02:50;;;;;;;7.68;5.25;;;;;;;10.43;64.41;98934.41;3388967;29;20043;-67
2021/10/28 05:04:30;;;;;;;6.57;5.18;;;;;;;10.45;64.43;98936.84;3387472;29;20508;-68
2021/10/28 05:06:12;;;;;;;8.20;4.85;;;;;;;10.44;64.56;98936.03;3388769;29;20048;-68
2021/10/28 05:07:53;;;;;;;7.55;4.57;;;;;;;10.45;64.56;98935.03;3389318;29;20487;-69
2021/10/28 05:09:40;;;;;;;8.38;5.78;;;;;;;10.47;64.85;98932.94;3400858;29;20059;-68
2021/10/28 05:11:23;;;;;;;7.65;5.10;;;;;;;10.47;64.52;98935.59;3376032;29;20048;-68
2021/10/28 05:13:03;;;;;;;6.18;5.07;;;;;;;10.47;64.60;98935.59;3377169;29;20032;-68
2021/10/28 05:14:44;;;;;;;7.57;5.47;;;;;;;10.48;64.59;98942.59;3387056;29;20042;-69
2021/10/28 05:16:25;;;;;;;7.00;5.43;;;;;;;10.48;64.84;98942.59;3383116;29;20036;-68
2021/10/28 05:18:06;;;;;;;6.90;5.05;;;;;;;10.48;64.72;98934.59;3388066;29;20044;-69
2021/10/28 05:19:47;;;;;;;5.85;4.97;;;;;;;10.51;64.72;98930.69;3387723;29;20096;-69
2021/10/28 05:21:28;;;;;;;9.70;4.78;;;;;;;10.51;64.79;98940.50;3389050;29;20155;-68
2021/10/28 05:23:10;;;;;;;7.53;5.78;;;;;;;10.53;64.75;98941.94;3388978;29;20419;-68
2021/10/28 05:24:51;;;;;;;6.97;5.07;;;;;;;10.54;64.93;98940.09;3387128;29;20036;-68
2021/10/28 05:26:31;;;;;;;7.30;5.35;;;;;;;10.56;64.74;98938.03;3388868;29;20091;-68
2021/10/28 05:28:12;;;;;;;8.20;5.18;;;;;;;10.57;65.04;98940.50;3388750;29;20130;-70
2021/10/28 05:29:52;;;;;;;7.78;5.50;;;;;;;10.58;64.79;98947.44;3378220;29;20043;-68
2021/10/28 05:31:33;;;;;;;7.22;4.90;;;;;;;10.60;65.02;98945.38;3375915;29;20055;-68
2021/10/28 05:33:14;;;;;;;7.78;5.28;;;;;;;10.59;64.99;98942.94;3375650;29;20109;-68
2021/10/28 05:34:59;;;;;;;7.53;4.88;;;;;;;10.61;65.15;98946.19;3377193;29;20525;-68
2021/10/28 05:36:39;;;;;;;5.68;4.78;;;;;;;10.61;65.25;98949.69;3375544;29;20040;-68
2021/10/28 05:38:21;;;;;;;6.18;5.30;;;;;;;10.60;65.10;98944.56;3375805;29;20516;-67
2021/10/28 05:40:03;;;;;;;9.60;4.85;;;;;;;10.62;65.34;98943.31;3375704;29;20412;-67
2021/10/28 05:41:44;;;;;;;7.25;5.05;;;;;;;10.63;65.19;98946.81;3375180;29;20121;-68
2021/10/28 05:43:24;;;;;;;8.50;4.82;;;;;;;10.63;65.40;98938.81;3375655;29;20496;-68
2021/10/28 05:45:07;;;;;;;5.55;4.47;;;;;;;10.62;65.43;98938.00;3376568;29;20044;-69
2021/10/28 05:46:48;;;;;;;6.63;4.93;;;;;;;10.63;65.29;98934.28;3386254;29;20504;-69
2021/10/28 05:48:29;;;;;;;7.82;5.07;;;;;;;10.64;65.49;98940.47;3388503;29;20055;-70
2021/10/28 05:50:15;;;;;;;7.90;5.22;;;;;;;10.65;65.54;98936.75;3384354;29;20119;-68
2021/10/28 05:51:56;;;;;;;6.80;5.30;;;;;;;10.64;65.50;98930.63;3388554;29;20048;-68
2021/10/28 05:53:38;;;;;;;7.05;4.32;;;;;;;10.67;65.48;98940.03;3387417;29;20661;-67
2021/10/28 05:55:20;;;;;;;;;;;;;;;10.76;65.01;98937.91;3386459;29;20089;-67
2021/10/28 05:57:02;;;;;;;7.93;4.00;;;;;;;10.71;65.12;98935.88;3387119;29;19923;-69
2021/10/28 05:58:43;;;;;;;5.97;4.45;;;;;;;10.72;65.40;98936.72;3388248;29;20059;-69
2021/10/28 06:00:24;;;;;;;5.22;3.90;;;;;;;10.72;65.23;98936.72;3392828;29;20099;-68
2021/10/28 06:02:05;;;;;;;6.38;4.35;;;;;;;10.73;65.29;98936.50;3385535;29;20060;-70
2021/10/28 06:03:46;;;;;;;5.53;4.60;;;;;;;10.73;65.48;98933.84;3384433;29;20419;-68
2021/10/28 06:05:27;;;;;;;5.70;3.58;;;;;;;10.74;65.55;98935.50;3388474;29;20056;-68
2021/10/28 06:07:07;;;;;;;10.63;4.18;;;;;;;10.75;65.47;98931.78;3388021;29;20091;-70
2021/10/28 06:08:48;;;;;;;4.82;4.00;;;;;;;10.77;65.53;98924.41;3388378;29;20040;-69
2021/10/28 06:10:28;;;;;;;6.10;4.05;;;;;;;10.78;65.58;98926.00;3388145;29;20047;-68
2021/10/28 06:12:10;;;;;;;6.68;4.20;;;;;;;10.80;65.62;98934.63;3378411;29;20131;-68
2021/10/28 06:13:51;;;;;;;5.03;3.80;;;;;;;10.81;65.37;98922.09;3374243;29;20533;-69
2021/10/28 06:15:35;;;;;;;5.97;3.58;;;;;;;10.82;65.46;98931.75;3374858;29;20045;-69
2021/10/28 06:17:17;;;;;;;6.30;3.67;;;;;;;10.82;65.73;98932.56;3375077;29;20044;-68
2021/10/28 06:18:58;;;;;;;5.68;3.22;;;;;;;10.83;65.68;98928.84;3375273;29;20052;-68
2021/10/28 06:20:39;;;;;;;5.88;3.63;;;;;;;10.85;65.63;98928.66;3374788;29;20131;-68
2021/10/28 06:22:20;;;;;;;8.55;4.18;;;;;;;10.83;65.78;98918.19;3375425;29;20072;-69
2021/10/28 06:24:01;;;;;;;4.75;3.53;;;;;;;10.86;65.68;98928.41;3375250;29;20036;-69
2021/10/28 06:25:42;;;;;;;4.45;3.83;;;;;;;10.87;65.72;98935.41;3375286;29;20135;-69
2021/10/28 06:27:23;;;;;;;8.70;3.50;;;;;;;10.87;65.70;98935.41;3386598;29;20063;-68
2021/10/28 06:29:04;;;;;;;6.77;3.00;;;;;;;10.90;65.85;98929.63;3388233;29;20067;-70
2021/10/28 06:30:44;;;;;;;4.22;3.22;;;;;;;10.90;65.81;98934.97;3387889;29;20296;-68
2021/10/28 06:32:25;;;;;;;5.20;3.63;;;;;;;10.91;65.75;98931.25;3388389;29;20059;-68
2021/10/28 06:34:09;;;;;;;6.25;3.15;;;;;;;10.89;65.89;98936.00;3388243;29;20122;-68
2021/10/28 06:35:50;;;;;;;6.60;3.40;;;;;;;10.93;65.84;98941.72;3388501;29;20092;-68
2021/10/28 06:37:31;;;;;;;7.20;3.15;;;;;;;10.94;65.96;98946.00;3378427;29;20053;-67
2021/10/28 06:39:12;;;;;;;5.22;3.38;;;;;;;10.96;65.82;98935.13;3375051;29;20112;-68
2021/10/28 06:40:53;;;;;;;4.40;2.85;;;;;;;10.96;66.00;98937.81;3378178;29;20637;-69
2021/10/28 06:42:33;;;;;;;4.32;3.17;;;;;;;10.99;65.85;98951.50;3388245;29;20039;-68
2021/10/28 06:44:14;;;;;;;4.07;3.53;;;;;;;11.01;65.94;98948.63;3387359;29;20520;-69
2021/10/28 06:45:55;;;;;;;4.68;2.88;;;;;;;11.02;65.88;98944.94;3387882;29;20052;-68
2021/10/28 06:47:35;;;;;;;6.85;3.30;;;;;;;11.03;65.98;98946.59;3378407;29;20469;-67
2021/10/28 06:49:18;;;;;;;5.88;3.55;;;;;;;11.06;66.01;98954.16;3374665;29;20048;-68
2021/10/28 06:51:00;;;;;;;2.45;2.17;;;;;;;11.08;65.84;98944.09;3375077;29;20052;-68
2021/10/28 06:54:35;;;;;;;4.13;2.58;;;;;;;11.14;66.02;98945.88;3377774;29;20036;-69
2021/10/28 06:56:39;;;;;;;3.67;2.83;;;;;;;11.16;65.84;98945.66;3377549;29;20036;-68
2021/10/28 07:02:20;;;;;;;2.65;2.05;;;;;;;11.23;65.84;98952.59;3378911;29;20083;-68
2021/10/28 07:04:01;;;;;;;6.45;2.67;;;;;;;11.27;65.94;98955.63;3386428;29;20040;-69
2021/10/28 07:05:42;;;;;;;3.70;2.42;;;;;;;11.27;65.98;98951.09;3379854;29;20092;-69
2021/10/28 07:07:25;;;;;;;4.00;2.38;;;;;;;11.30;65.94;98950.66;3377328;29;20135;-70
2021/10/28 07:09:58;;;;;;;2.50;2.00;;;;;;;11.30;66.08;98950.66;3377768;29;20043;-69
2021/10/28 07:11:14;;;;;;;6.68;2.55;;;;;;;11.32;65.99;98956.59;3379333;29;20143;-68
2021/10/28 07:13:03;;;;;;;3.28;2.30;;;;;;;11.32;66.04;98953.13;3402209;29;20082;-68
2021/10/28 07:14:47;;;;;;;3.60;2.28;;;;;;;11.34;66.25;98957.22;3391487;29;20051;-69
2021/10/28 07:16:39;;;;;;;3.58;2.42;;;;;;;11.35;66.23;98950.81;3388879;29;20613;-68
2021/10/28 07:18:28;;;;;;;3.15;1.75;;;;;;;11.37;66.10;98955.97;3390098;29;20415;-68
2021/10/28 07:20:23;;;;;;;2.70;2.20;;;;;;;11.39;66.34;98958.41;3389804;29;20044;-68
2021/10/28 07:36:15;;;;;;;2.78;2.05;;;;;;;11.54;66.08;98961.59;3388124;29;20050;-68
2021/10/28 08:18:53;;;;;;;9.30;2.45;;;;;;;12.19;66.10;98975.34;3377090;29;20052;-69
2021/10/28 08:22:33;;;;;;;2.60;1.67;;;;;;;12.27;65.99;98981.44;3389832;29;20048;-68
2021/10/28 08:30:07;;;;;;;3.75;1.63;;;;;;;12.36;65.72;98996.09;3386006;29;20043;-68
2021/10/28 08:31:49;;;;;;;3.83;1.50;;;;;;;12.37;65.84;98993.22;3388919;29;20048;-68
2021/10/28 08:33:31;;;;;;;3.03;1.48;;;;;;;12.38;65.79;98994.84;3384676;29;20040;-69
2021/10/28 08:35:12;;;;;;;7.40;2.03;;;;;;;12.42;65.90;99005.91;3376537;29;20143;-68
2021/10/28 08:38:49;;;;;;;6.75;2.05;;;;;;;12.49;65.79;98997.81;3376528;29;20052;-68
2021/10/28 08:40:29;;;;;;;2.80;1.63;;;;;;;12.52;65.86;99008.03;3376363;29;20105;-69
2021/10/28 08:42:12;;;;;;;2.28;1.70;;;;;;;12.55;65.88;99012.97;3375233;29;20040;-70
2021/10/28 08:43:54;;;;;;;3.92;1.58;;;;;;;12.57;65.81;99014.38;3376492;29;20055;-69
2021/10/28 08:45:36;;;;;;;2.88;1.92;;;;;;;12.63;65.83;99009.97;3379633;29;20040;-70
2021/10/28 08:47:18;;;;;;;2.65;1.38;;;;;;;12.67;65.85;99011.16;3375132;29;20044;-69
2021/10/28 08:49:02;;;;;;;2.70;1.80;;;;;;;12.75;65.65;99020.72;3382533;29;20044;-68
2021/10/28 08:50:51;;;;;;;1.92;1.35;;;;;;;12.80;65.58;99023.53;3380859;29;20052;-69
2021/10/28 08:53:07;;;;;;;6.68;2.10;;;;;;;12.83;65.47;99012.38;3388151;29;20104;-68
2021/10/28 08:56:54;;;;;;;1.50;1.30;;;;;;;12.88;65.60;99015.19;3390241;29;20047;-68
2021/10/28 09:25:54;;;;;;;4.30;1.65;;;;;;;13.18;65.13;99036.59;3383968;29;20116;-69
2021/10/28 09:27:42;;;;;;;4.30;1.60;;;;;;;13.23;65.24;99044.78;3385985;29;20143;-69
2021/10/28 09:31:20;;;;;;;1.88;1.35;;;;;;;13.18;65.10;99041.97;3381777;29;20028;-70
2021/10/28 09:33:13;;;;;;;3.00;1.38;;;;;;;13.23;65.22;99046.63;3382959;29;20044;-69
2021/10/28 09:47:51;;;;;;;3.97;1.42;;;;;;;13.44;65.03;99059.53;3388942;29;20048;-69
2021/10/28 09:49:58;;;;;;;2.50;1.48;;;;;;;13.45;64.98;99058.50;3388142;29;20055;-70
2021/10/28 09:51:47;;;;;;;1.20;1.10;;;;;;;13.49;64.89;99059.66;3387044;29;20048;-65
2021/10/28 09:53:33;;;;;;;2.53;1.40;;;;;;;13.53;64.88;99060.84;3378151;29;20048;-71
2021/10/28 09:59:25;;;;;;;1.52;1.00;;;;;;;13.65;64.67;99060.03;3375730;29;20060;-72
2021/10/28 10:01:09;;;;;;;1.80;1.27;;;;;;;13.74;64.86;99072.06;3378434;29;20067;-70
2021/10/28 10:02:54;;;;;;;1.95;1.20;;;;;;;13.75;64.62;99069.13;3382151;29;20044;-70
2021/10/28 10:04:36;;;;;;;2.20;1.48;;;;;;;13.74;64.51;99072.88;3386646;29;20079;-69
2021/10/28 10:06:25;;;;;;;4.50;1.60;;;;;;;13.79;64.63;99080.22;3385419;29;20051;-69
2021/10/28 10:08:07;;;;;;;4.40;1.20;;;;;;;13.79;64.53;99074.88;3384231;29;20044;-68
2021/10/28 10:09:48;;;;;;;2.55;1.25;;;;;;;13.80;64.58;99081.84;3388419;29;20044;-69
2021/10/28 10:11:29;;;;;;;2.38;0.90;;;;;;;13.81;64.49;99075.47;3378493;29;20052;-70
2021/10/28 10:13:10;;;;;;;1.58;1.42;;;;;;;13.80;64.57;99081.03;3375818;29;20039;-70
2021/10/28 10:14:51;;;;;;;3.60;1.13;;;;;;;13.80;64.58;99076.47;3382939;29;20040;-69
2021/10/28 10:16:33;;;;;;;1.65;0.93;;;;;;;13.80;64.77;99087.19;3388039;29;20114;-70
2021/10/28 10:18:14;;;;;;;2.28;0.88;;;;;;;13.80;64.70;99089.06;3388395;29;20083;-70
2021/10/28 10:19:57;;;;;;;3.30;1.13;;;;;;;13.81;64.57;99088.84;3387505;29;20048;-70
2021/10/28 10:21:41;;;;;;;1.42;1.17;;;;;;;13.82;64.57;99090.47;3386737;29;20048;-70
2021/10/28 11:19:48;;;;;;;0.82;0.60;;;;;;;16.21;57.51;99157.38;3387105;29;20040;-71
2021/10/28 12:14:09;;;;;;;2.40;1.05;;;;;;;16.42;53.82;99227.59;3369139;29;20073;-70
2021/10/28 12:43:52;;;;;;;1.13;0.60;;;;;;;16.11;58.09;99346.22;3379621;29;20043;-68
2021/10/28 12:45:40;;;;;;;5.30;0.93;;;;;;;16.40;57.55;99356.97;3372290;29;20036;-68
2021/10/28 12:47:52;;;;;;;0.88;0.70;;;;;;;16.63;56.86;99355.22;3371957;29;20039;-68
2021/10/28 13:08:01;;;;;;;3.20;0.70;;;;;;;15.82;54.73;99392.91;3369599;29;20150;-71
2021/10/28 13:49:17;;;;;;;0.70;0.65;;;;;;;15.80;55.08;99491.75;3367741;29;20044;-69
2021/10/28 13:55:34;;;;;;;6.88;0.70;;;;;;;15.82;55.10;99506.59;3379687;29;20047;-68
2021/10/28 15:28:20;;;;;;;12.50;6.13;;;;;;;15.47;55.56;99753.66;3371611;29;20614;-70
2021/10/28 15:35:48;;;;;;;6.57;2.67;;;;;;;15.32;54.90;99774.69;3367401;29;20040;-69
2021/10/28 15:47:34;;;;;;;3.95;2.17;;;;;;;15.21;55.15;99795.84;3363382;29;20041;-69
2021/10/28 16:22:04;;;;;;;2.53;1.10;;;;;;;14.80;52.92;99907.28;3364572;29;20049;-70
2021/10/28 16:23:45;;;;;;;1.50;0.90;;;;;;;14.87;52.87;99914.44;3364678;29;20091;-71
2021/10/28 16:25:25;;;;;;;1.25;0.75;;;;;;;14.87;52.74;99922.50;3365493;29;20053;-70
2021/10/28 16:27:06;;;;;;;1.33;1.13;;;;;;;14.85;52.85;99919.25;3363868;29;20048;-71
2021/10/28 16:28:47;;;;;;;2.35;0.95;;;;;;;14.90;52.69;99922.09;3363953;29;20069;-70
2021/10/28 16:30:27;;;;;;;0.98;0.70;;;;;;;14.89;52.05;99925.78;3363898;29;20092;-70
2021/10/28 16:32:08;;;;;;;5.05;1.20;;;;;;;14.86;51.72;99936.97;3363761;29;20461;-69
2021/10/28 16:33:50;;;;;;;0.80;0.70;;;;;;;14.75;51.68;99930.44;3375943;29;20052;-71
2021/10/28 16:35:30;;;;;;;1.95;0.95;;;;;;;14.70;51.80;99939.13;3369570;29;20068;-70
2021/10/28 16:37:13;;;;;;;3.53;1.95;;;;;;;14.61;51.71;99933.19;3375448;29;20048;-70
2021/10/28 16:38:54;;;;;;;2.35;1.48;;;;;;;14.53;51.92;99932.63;3372971;29;20036;-70
2021/10/28 16:40:38;;;;;;;4.72;1.08;;;;;;;14.48;51.98;99945.81;3375022;29;20044;-69
2021/10/28 16:42:20;;;;;;;1.50;0.90;;;;;;;14.37;51.80;99953.47;3376457;29;20104;-70
2021/10/28 16:44:05;;;;;;;0.95;0.75;;;;;;;14.30;52.07;99955.41;3376525;29;20048;-70
2021/10/28 16:45:46;;;;;;;1.42;0.57;;;;;;;14.25;52.15;99962.41;3376422;29;20072;-70